sensor_id;sensor_type;location;lat;lon;timestamp;P1;durP1;ratioP1;P2;durP2;ratioP2
31758;SDS011;36334;51.366;0.020;2022-09-09T00:02:28;15.30;;;4.18;;
31758;SDS011;36334;51.366;0.020;2022-09-09T00:08:15;13.65;;;4.57;;
31758;SDS011;36334;51.366;0.020;2022-09-09T00:11:09;10.00;;;3.92;;
31758;SDS011;36334;51.366;0.020;2022-09-09T00:13:58;10.23;;;4.40;;
31758;SDS011;36334;51.366;0.020;2022-09-09T00:16:51;12.30;;;3.85;;
31758;SDS011;36334;51.366;0.020;2022-09-09T00:19:45;10.80;;;3.70;;
31758;SDS011;36334;51.366;0.020;2022-09-09T00:22:40;12.38;;;4.50;;
31758;SDS011;36334;51.366;0.020;2022-09-09T00:28:27;9.55;;;3.50;;
31758;SDS011;36334;51.366;0.020;2022-09-09T00:31:18;17.73;;;4.40;;
31758;SDS011;36334;51.366;0.020;2022-09-09T00:36:59;14.57;;;4.60;;
31758;SDS011;36334;51.366;0.020;2022-09-09T00:39:45;18.90;;;5.18;;
31758;SDS011;36334;51.366;0.020;2022-09-09T00:42:41;17.60;;;4.40;;
31758;SDS011;36334;51.366;0.020;2022-09-09T00:45:40;15.48;;;4.88;;
31758;SDS011;36334;51.366;0.020;2022-09-09T00:48:58;10.63;;;5.03;;
31758;SDS011;36334;51.366;0.020;2022-09-09T00:52:13;13.65;;;4.90;;
31758;SDS011;36334;51.366;0.020;2022-09-09T00:58:19;13.82;;;4.60;;
31758;SDS011;36334;51.366;0.020;2022-09-09T01:03:55;12.00;;;4.95;;
31758;SDS011;36334;51.366;0.020;2022-09-09T01:06:45;12.85;;;5.20;;
31758;SDS011;36334;51.366;0.020;2022-09-09T01:09:41;17.75;;;5.72;;
31758;SDS011;36334;51.366;0.020;2022-09-09T01:12:39;9.63;;;5.47;;
31758;SDS011;36334;51.366;0.020;2022-09-09T01:15:30;12.63;;;5.53;;
31758;SDS011;36334;51.366;0.020;2022-09-09T01:18:19;18.75;;;7.13;;
31758;SDS011;36334;51.366;0.020;2022-09-09T01:21:18;12.48;;;6.05;;
31758;SDS011;36334;51.366;0.020;2022-09-09T01:24:17;13.32;;;5.65;;
31758;SDS011;36334;51.366;0.020;2022-09-09T01:27:38;13.45;;;5.70;;
31758;SDS011;36334;51.366;0.020;2022-09-09T01:30:27;18.77;;;6.55;;
31758;SDS011;36334;51.366;0.020;2022-09-09T01:33:17;13.73;;;5.25;;
31758;SDS011;36334;51.366;0.020;2022-09-09T01:36:05;14.40;;;6.43;;
31758;SDS011;36334;51.366;0.020;2022-09-09T01:39:05;13.60;;;5.32;;
31758;SDS011;36334;51.366;0.020;2022-09-09T01:41:51;15.00;;;5.07;;
31758;SDS011;36334;51.366;0.020;2022-09-09T01:44:40;13.52;;;5.35;;
31758;SDS011;36334;51.366;0.020;2022-09-09T01:47:30;10.10;;;4.72;;
31758;SDS011;36334;51.366;0.020;2022-09-09T01:50:36;16.02;;;5.78;;
31758;SDS011;36334;51.366;0.020;2022-09-09T01:53:23;14.30;;;6.22;;
31758;SDS011;36334;51.366;0.020;2022-09-09T01:56:16;17.95;;;6.30;;
31758;SDS011;36334;51.366;0.020;2022-09-09T01:59:17;15.43;;;6.35;;
31758;SDS011;36334;51.366;0.020;2022-09-09T02:02:19;18.02;;;8.15;;
31758;SDS011;36334;51.366;0.020;2022-09-09T02:08:26;19.95;;;7.38;;
31758;SDS011;36334;51.366;0.020;2022-09-09T02:11:26;19.73;;;6.75;;
31758;SDS011;36334;51.366;0.020;2022-09-09T02:14:23;17.02;;;7.13;;
31758;SDS011;36334;51.366;0.020;2022-09-09T02:17:18;14.02;;;6.05;;
31758;SDS011;36334;51.366;0.020;2022-09-09T02:20:25;14.10;;;5.40;;
31758;SDS011;36334;51.366;0.020;2022-09-09T02:23:18;19.65;;;6.57;;
31758;SDS011;36334;51.366;0.020;2022-09-09T02:26:10;14.07;;;4.70;;
31758;SDS011;36334;51.366;0.020;2022-09-09T02:29:01;10.07;;;4.95;;
31758;SDS011;36334;51.366;0.020;2022-09-09T02:31:52;15.65;;;4.43;;
31758;SDS011;36334;51.366;0.020;2022-09-09T02:34:47;12.80;;;4.57;;
31758;SDS011;36334;51.366;0.020;2022-09-09T02:37:37;11.63;;;4.55;;
31758;SDS011;36334;51.366;0.020;2022-09-09T02:40:25;11.85;;;4.00;;
31758;SDS011;36334;51.366;0.020;2022-09-09T02:43:17;15.48;;;5.82;;
31758;SDS011;36334;51.366;0.020;2022-09-09T02:52:19;14.13;;;4.60;;
31758;SDS011;36334;51.366;0.020;2022-09-09T02:55:16;13.60;;;6.53;;
31758;SDS011;36334;51.366;0.020;2022-09-09T02:58:22;17.95;;;4.97;;
31758;SDS011;36334;51.366;0.020;2022-09-09T03:01:14;18.60;;;4.60;;
31758;SDS011;36334;51.366;0.020;2022-09-09T03:04:02;14.35;;;5.57;;
31758;SDS011;36334;51.366;0.020;2022-09-09T03:06:51;18.20;;;5.13;;
31758;SDS011;36334;51.366;0.020;2022-09-09T03:09:39;14.48;;;4.72;;
31758;SDS011;36334;51.366;0.020;2022-09-09T03:12:25;18.92;;;6.63;;
31758;SDS011;36334;51.366;0.020;2022-09-09T03:15:23;13.15;;;5.35;;
31758;SDS011;36334;51.366;0.020;2022-09-09T03:18:09;14.13;;;5.60;;
31758;SDS011;36334;51.366;0.020;2022-09-09T03:20:55;13.18;;;7.13;;
31758;SDS011;36334;51.366;0.020;2022-09-09T03:23:41;13.52;;;5.07;;
31758;SDS011;36334;51.366;0.020;2022-09-09T03:26:28;12.18;;;6.35;;
31758;SDS011;36334;51.366;0.020;2022-09-09T03:29:15;13.93;;;5.97;;
31758;SDS011;36334;51.366;0.020;2022-09-09T03:32:03;12.48;;;5.68;;
31758;SDS011;36334;51.366;0.020;2022-09-09T03:34:49;23.45;;;7.45;;
31758;SDS011;36334;51.366;0.020;2022-09-09T03:37:36;14.15;;;6.18;;
31758;SDS011;36334;51.366;0.020;2022-09-09T03:40:24;19.00;;;5.65;;
31758;SDS011;36334;51.366;0.020;2022-09-09T03:43:11;14.50;;;5.70;;
31758;SDS011;36334;51.366;0.020;2022-09-09T03:45:58;13.35;;;6.03;;
31758;SDS011;36334;51.366;0.020;2022-09-09T03:48:45;13.43;;;5.78;;
31758;SDS011;36334;51.366;0.020;2022-09-09T03:51:31;17.20;;;6.05;;
31758;SDS011;36334;51.366;0.020;2022-09-09T03:54:23;25.40;;;8.48;;
31758;SDS011;36334;51.366;0.020;2022-09-09T03:57:10;10.98;;;6.38;;
31758;SDS011;36334;51.366;0.020;2022-09-09T03:59:56;17.00;;;6.45;;
31758;SDS011;36334;51.366;0.020;2022-09-09T04:02:43;12.25;;;6.60;;
31758;SDS011;36334;51.366;0.020;2022-09-09T04:05:33;17.15;;;5.55;;
31758;SDS011;36334;51.366;0.020;2022-09-09T04:08:19;15.07;;;5.80;;
31758;SDS011;36334;51.366;0.020;2022-09-09T04:11:07;14.88;;;5.22;;
31758;SDS011;36334;51.366;0.020;2022-09-09T04:13:56;15.63;;;6.75;;
31758;SDS011;36334;51.366;0.020;2022-09-09T04:16:43;14.02;;;5.40;;
31758;SDS011;36334;51.366;0.020;2022-09-09T04:19:30;16.52;;;6.45;;
31758;SDS011;36334;51.366;0.020;2022-09-09T04:22:17;12.10;;;6.22;;
31758;SDS011;36334;51.366;0.020;2022-09-09T04:25:05;16.77;;;6.30;;
31758;SDS011;36334;51.366;0.020;2022-09-09T04:27:56;16.15;;;5.70;;
31758;SDS011;36334;51.366;0.020;2022-09-09T04:30:45;16.70;;;6.90;;
31758;SDS011;36334;51.366;0.020;2022-09-09T04:33:31;13.73;;;6.43;;
31758;SDS011;36334;51.366;0.020;2022-09-09T04:36:24;12.77;;;6.05;;
31758;SDS011;36334;51.366;0.020;2022-09-09T04:39:15;12.98;;;6.15;;
31758;SDS011;36334;51.366;0.020;2022-09-09T04:42:02;18.80;;;7.15;;
31758;SDS011;36334;51.366;0.020;2022-09-09T04:44:49;18.60;;;6.15;;
31758;SDS011;36334;51.366;0.020;2022-09-09T04:47:35;14.68;;;7.07;;
31758;SDS011;36334;51.366;0.020;2022-09-09T04:50:21;14.20;;;6.13;;
31758;SDS011;36334;51.366;0.020;2022-09-09T04:53:16;12.13;;;6.20;;
31758;SDS011;36334;51.366;0.020;2022-09-09T04:56:07;15.10;;;7.50;;
31758;SDS011;36334;51.366;0.020;2022-09-09T04:59:16;14.20;;;6.90;;
31758;SDS011;36334;51.366;0.020;2022-09-09T05:02:06;17.00;;;7.07;;
31758;SDS011;36334;51.366;0.020;2022-09-09T05:04:53;11.88;;;6.80;;
31758;SDS011;36334;51.366;0.020;2022-09-09T05:07:39;11.45;;;6.10;;
31758;SDS011;36334;51.366;0.020;2022-09-09T05:10:25;12.57;;;6.05;;
31758;SDS011;36334;51.366;0.020;2022-09-09T05:13:12;18.35;;;6.95;;
31758;SDS011;36334;51.366;0.020;2022-09-09T05:15:58;14.07;;;7.13;;
31758;SDS011;36334;51.366;0.020;2022-09-09T05:18:45;12.07;;;6.25;;
31758;SDS011;36334;51.366;0.020;2022-09-09T05:21:32;15.68;;;6.80;;
31758;SDS011;36334;51.366;0.020;2022-09-09T05:24:18;10.80;;;6.22;;
31758;SDS011;36334;51.366;0.020;2022-09-09T05:27:08;18.55;;;7.18;;
31758;SDS011;36334;51.366;0.020;2022-09-09T05:29:58;15.27;;;7.57;;
31758;SDS011;36334;51.366;0.020;2022-09-09T05:32:44;14.23;;;7.35;;
31758;SDS011;36334;51.366;0.020;2022-09-09T05:35:31;14.00;;;7.82;;
31758;SDS011;36334;51.366;0.020;2022-09-09T05:38:17;15.82;;;8.13;;
31758;SDS011;36334;51.366;0.020;2022-09-09T05:41:04;17.77;;;8.88;;
31758;SDS011;36334;51.366;0.020;2022-09-09T05:43:50;19.02;;;9.50;;
31758;SDS011;36334;51.366;0.020;2022-09-09T05:46:37;26.05;;;10.60;;
31758;SDS011;36334;51.366;0.020;2022-09-09T05:49:23;19.02;;;10.43;;
31758;SDS011;36334;51.366;0.020;2022-09-09T05:52:11;21.58;;;9.80;;
31758;SDS011;36334;51.366;0.020;2022-09-09T05:54:57;20.10;;;10.27;;
31758;SDS011;36334;51.366;0.020;2022-09-09T05:57:47;16.90;;;10.00;;
31758;SDS011;36334;51.366;0.020;2022-09-09T06:00:34;20.55;;;10.75;;
31758;SDS011;36334;51.366;0.020;2022-09-09T06:03:20;20.58;;;10.95;;
31758;SDS011;36334;51.366;0.020;2022-09-09T06:06:10;17.48;;;8.55;;
31758;SDS011;36334;51.366;0.020;2022-09-09T06:08:58;21.95;;;8.98;;
31758;SDS011;36334;51.366;0.020;2022-09-09T06:11:52;15.30;;;9.40;;
31758;SDS011;36334;51.366;0.020;2022-09-09T06:14:43;17.02;;;9.52;;
31758;SDS011;36334;51.366;0.020;2022-09-09T06:17:33;14.82;;;9.20;;
31758;SDS011;36334;51.366;0.020;2022-09-09T06:20:19;21.83;;;10.43;;
31758;SDS011;36334;51.366;0.020;2022-09-09T06:23:06;20.92;;;10.15;;
31758;SDS011;36334;51.366;0.020;2022-09-09T06:25:59;16.00;;;10.73;;
31758;SDS011;36334;51.366;0.020;2022-09-09T06:28:54;19.67;;;9.55;;
31758;SDS011;36334;51.366;0.020;2022-09-09T06:31:43;22.02;;;9.23;;
31758;SDS011;36334;51.366;0.020;2022-09-09T06:34:34;20.13;;;9.00;;
31758;SDS011;36334;51.366;0.020;2022-09-09T06:37:22;18.70;;;9.23;;
31758;SDS011;36334;51.366;0.020;2022-09-09T06:40:09;17.20;;;9.35;;
31758;SDS011;36334;51.366;0.020;2022-09-09T06:42:59;22.33;;;9.88;;
31758;SDS011;36334;51.366;0.020;2022-09-09T06:45:54;14.23;;;9.52;;
31758;SDS011;36334;51.366;0.020;2022-09-09T06:48:42;19.60;;;9.25;;
31758;SDS011;36334;51.366;0.020;2022-09-09T06:51:34;19.48;;;9.15;;
31758;SDS011;36334;51.366;0.020;2022-09-09T06:54:23;16.55;;;8.82;;
31758;SDS011;36334;51.366;0.020;2022-09-09T06:57:11;12.85;;;8.43;;
31758;SDS011;36334;51.366;0.020;2022-09-09T07:00:19;13.13;;;7.65;;
31758;SDS011;36334;51.366;0.020;2022-09-09T07:03:05;18.77;;;7.88;;
31758;SDS011;36334;51.366;0.020;2022-09-09T07:05:55;14.77;;;8.02;;
31758;SDS011;36334;51.366;0.020;2022-09-09T07:08:48;15.18;;;7.28;;
31758;SDS011;36334;51.366;0.020;2022-09-09T07:11:44;14.15;;;6.88;;
31758;SDS011;36334;51.366;0.020;2022-09-09T07:14:35;11.00;;;7.32;;
31758;SDS011;36334;51.366;0.020;2022-09-09T07:17:26;14.27;;;7.07;;
31758;SDS011;36334;51.366;0.020;2022-09-09T07:20:14;14.90;;;7.18;;
31758;SDS011;36334;51.366;0.020;2022-09-09T07:23:04;11.07;;;6.70;;
31758;SDS011;36334;51.366;0.020;2022-09-09T07:25:51;11.77;;;7.55;;
31758;SDS011;36334;51.366;0.020;2022-09-09T07:28:39;15.80;;;6.88;;
31758;SDS011;36334;51.366;0.020;2022-09-09T07:31:30;14.15;;;6.78;;
31758;SDS011;36334;51.366;0.020;2022-09-09T07:34:19;11.38;;;7.07;;
31758;SDS011;36334;51.366;0.020;2022-09-09T07:37:05;10.20;;;6.55;;
31758;SDS011;36334;51.366;0.020;2022-09-09T07:39:53;13.70;;;7.65;;
31758;SDS011;36334;51.366;0.020;2022-09-09T07:42:39;13.02;;;7.72;;
31758;SDS011;36334;51.366;0.020;2022-09-09T07:45:25;10.82;;;7.22;;
31758;SDS011;36334;51.366;0.020;2022-09-09T07:48:16;9.88;;;7.30;;
31758;SDS011;36334;51.366;0.020;2022-09-09T07:53:58;12.70;;;6.85;;
31758;SDS011;36334;51.366;0.020;2022-09-09T07:56:48;15.60;;;7.53;;
31758;SDS011;36334;51.366;0.020;2022-09-09T07:59:35;11.45;;;7.68;;
31758;SDS011;36334;51.366;0.020;2022-09-09T08:02:22;14.30;;;7.93;;
31758;SDS011;36334;51.366;0.020;2022-09-09T08:05:09;12.00;;;7.32;;
31758;SDS011;36334;51.366;0.020;2022-09-09T08:07:58;15.27;;;8.13;;
31758;SDS011;36334;51.366;0.020;2022-09-09T08:10:46;12.52;;;7.70;;
31758;SDS011;36334;51.366;0.020;2022-09-09T08:13:33;12.35;;;7.85;;
31758;SDS011;36334;51.366;0.020;2022-09-09T08:16:24;14.02;;;7.90;;
31758;SDS011;36334;51.366;0.020;2022-09-09T08:19:13;13.05;;;7.93;;
31758;SDS011;36334;51.366;0.020;2022-09-09T08:22:02;11.43;;;7.47;;
31758;SDS011;36334;51.366;0.020;2022-09-09T08:24:50;11.77;;;8.02;;
31758;SDS011;36334;51.366;0.020;2022-09-09T08:27:37;14.05;;;7.63;;
31758;SDS011;36334;51.366;0.020;2022-09-09T08:30:24;14.70;;;7.85;;
31758;SDS011;36334;51.366;0.020;2022-09-09T08:33:10;8.88;;;7.22;;
31758;SDS011;36334;51.366;0.020;2022-09-09T08:35:56;11.30;;;6.43;;
31758;SDS011;36334;51.366;0.020;2022-09-09T08:38:43;10.23;;;6.35;;
31758;SDS011;36334;51.366;0.020;2022-09-09T08:45:27;15.93;;;7.80;;
31758;SDS011;36334;51.366;0.020;2022-09-09T08:48:47;9.73;;;6.22;;
31758;SDS011;36334;51.366;0.020;2022-09-09T08:51:43;12.20;;;6.65;;
31758;SDS011;36334;51.366;0.020;2022-09-09T08:54:33;10.15;;;5.90;;
31758;SDS011;36334;51.366;0.020;2022-09-09T08:57:38;8.38;;;6.40;;
31758;SDS011;36334;51.366;0.020;2022-09-09T09:00:27;10.27;;;7.25;;
31758;SDS011;36334;51.366;0.020;2022-09-09T09:06:47;9.63;;;7.65;;
31758;SDS011;36334;51.366;0.020;2022-09-09T09:09:54;8.65;;;6.18;;
31758;SDS011;36334;51.366;0.020;2022-09-09T09:12:52;12.68;;;7.38;;
31758;SDS011;36334;51.366;0.020;2022-09-09T09:15:41;9.32;;;6.35;;
31758;SDS011;36334;51.366;0.020;2022-09-09T09:18:29;10.43;;;6.88;;
31758;SDS011;36334;51.366;0.020;2022-09-09T09:30:55;8.52;;;6.22;;
31758;SDS011;36334;51.366;0.020;2022-09-09T09:33:56;8.82;;;6.63;;
31758;SDS011;36334;51.366;0.020;2022-09-09T09:36:52;10.30;;;7.03;;
31758;SDS011;36334;51.366;0.020;2022-09-09T09:39:45;11.88;;;7.45;;
31758;SDS011;36334;51.366;0.020;2022-09-09T09:42:55;11.52;;;8.18;;
31758;SDS011;36334;51.366;0.020;2022-09-09T09:45:44;13.35;;;8.93;;
31758;SDS011;36334;51.366;0.020;2022-09-09T09:49:02;13.50;;;8.70;;
31758;SDS011;36334;51.366;0.020;2022-09-09T09:51:51;13.18;;;8.43;;
31758;SDS011;36334;51.366;0.020;2022-09-09T09:54:39;12.07;;;8.93;;
31758;SDS011;36334;51.366;0.020;2022-09-09T09:57:31;12.68;;;8.43;;
31758;SDS011;36334;51.366;0.020;2022-09-09T10:00:23;10.73;;;8.20;;
31758;SDS011;36334;51.366;0.020;2022-09-09T10:06:11;13.40;;;9.90;;
31758;SDS011;36334;51.366;0.020;2022-09-09T10:08:58;12.27;;;8.80;;
31758;SDS011;36334;51.366;0.020;2022-09-09T10:30:45;12.98;;;10.57;;
31758;SDS011;36334;51.366;0.020;2022-09-09T10:36:51;19.40;;;11.50;;
31758;SDS011;36334;51.366;0.020;2022-09-09T10:39:38;18.85;;;11.93;;
31758;SDS011;36334;51.366;0.020;2022-09-09T10:42:29;19.83;;;11.43;;
31758;SDS011;36334;51.366;0.020;2022-09-09T10:48:50;16.70;;;10.80;;
31758;SDS011;36334;51.366;0.020;2022-09-09T10:54:57;17.02;;;10.63;;
31758;SDS011;36334;51.366;0.020;2022-09-09T10:57:56;18.98;;;9.75;;
31758;SDS011;36334;51.366;0.020;2022-09-09T11:00:49;12.55;;;8.98;;
31758;SDS011;36334;51.366;0.020;2022-09-09T11:03:44;14.27;;;9.73;;
31758;SDS011;36334;51.366;0.020;2022-09-09T11:06:39;17.67;;;10.20;;
31758;SDS011;36334;51.366;0.020;2022-09-09T11:09:42;14.70;;;9.52;;
31758;SDS011;36334;51.366;0.020;2022-09-09T11:15:45;18.83;;;10.65;;
31758;SDS011;36334;51.366;0.020;2022-09-09T11:18:40;13.70;;;10.23;;
31758;SDS011;36334;51.366;0.020;2022-09-09T11:21:32;13.93;;;9.77;;
31758;SDS011;36334;51.366;0.020;2022-09-09T11:24:28;14.75;;;9.43;;
31758;SDS011;36334;51.366;0.020;2022-09-09T11:27:29;13.02;;;8.75;;
31758;SDS011;36334;51.366;0.020;2022-09-09T11:30:31;10.50;;;9.13;;
31758;SDS011;36334;51.366;0.020;2022-09-09T11:33:46;12.68;;;9.35;;
31758;SDS011;36334;51.366;0.020;2022-09-09T11:42:38;8.57;;;5.28;;
31758;SDS011;36334;51.366;0.020;2022-09-09T11:45:25;8.95;;;5.10;;
31758;SDS011;36334;51.366;0.020;2022-09-09T11:48:28;10.85;;;5.43;;
31758;SDS011;36334;51.366;0.020;2022-09-09T11:57:41;9.87;;;5.00;;
31758;SDS011;36334;51.366;0.020;2022-09-09T12:00:38;8.15;;;5.75;;
31758;SDS011;36334;51.366;0.020;2022-09-09T12:06:25;7.35;;;4.97;;
31758;SDS011;36334;51.366;0.020;2022-09-09T12:12:38;7.22;;;5.10;;
31758;SDS011;36334;51.366;0.020;2022-09-09T12:15:28;9.50;;;5.20;;
31758;SDS011;36334;51.366;0.020;2022-09-09T12:18:20;6.60;;;5.00;;
31758;SDS011;36334;51.366;0.020;2022-09-09T12:21:31;7.80;;;3.63;;
31758;SDS011;36334;51.366;0.020;2022-09-09T12:24:41;7.90;;;4.72;;
31758;SDS011;36334;51.366;0.020;2022-09-09T12:27:42;6.55;;;4.75;;
31758;SDS011;36334;51.366;0.020;2022-09-09T12:30:56;6.47;;;4.60;;
31758;SDS011;36334;51.366;0.020;2022-09-09T12:33:50;8.25;;;5.03;;
31758;SDS011;36334;51.366;0.020;2022-09-09T12:36:38;8.30;;;4.25;;
31758;SDS011;36334;51.366;0.020;2022-09-09T12:39:32;7.40;;;5.78;;
31758;SDS011;36334;51.366;0.020;2022-09-09T12:42:22;6.47;;;5.25;;
31758;SDS011;36334;51.366;0.020;2022-09-09T12:45:19;7.45;;;4.88;;
31758;SDS011;36334;51.366;0.020;2022-09-09T12:48:07;5.30;;;4.30;;
31758;SDS011;36334;51.366;0.020;2022-09-09T12:50:55;7.72;;;4.68;;
31758;SDS011;36334;51.366;0.020;2022-09-09T12:53:41;8.32;;;4.60;;
31758;SDS011;36334;51.366;0.020;2022-09-09T12:56:29;6.65;;;4.65;;
31758;SDS011;36334;51.366;0.020;2022-09-09T12:59:26;6.03;;;4.32;;
31758;SDS011;36334;51.366;0.020;2022-09-09T13:02:26;7.50;;;3.72;;
31758;SDS011;36334;51.366;0.020;2022-09-09T13:05:31;7.40;;;4.47;;
31758;SDS011;36334;51.366;0.020;2022-09-09T13:08:22;9.30;;;5.32;;
31758;SDS011;36334;51.366;0.020;2022-09-09T13:11:10;5.63;;;4.18;;
31758;SDS011;36334;51.366;0.020;2022-09-09T13:16:58;5.53;;;3.70;;
31758;SDS011;36334;51.366;0.020;2022-09-09T13:19:46;5.57;;;4.05;;
31758;SDS011;36334;51.366;0.020;2022-09-09T13:22:36;7.00;;;4.55;;
31758;SDS011;36334;51.366;0.020;2022-09-09T13:25:25;5.15;;;4.22;;
31758;SDS011;36334;51.366;0.020;2022-09-09T13:28:23;7.07;;;4.60;;
31758;SDS011;36334;51.366;0.020;2022-09-09T13:31:27;5.47;;;3.70;;
31758;SDS011;36334;51.366;0.020;2022-09-09T13:34:28;5.40;;;4.03;;
31758;SDS011;36334;51.366;0.020;2022-09-09T13:37:24;6.82;;;4.20;;
31758;SDS011;36334;51.366;0.020;2022-09-09T13:40:22;6.15;;;4.35;;
31758;SDS011;36334;51.366;0.020;2022-09-09T13:43:13;5.00;;;4.22;;
31758;SDS011;36334;51.366;0.020;2022-09-09T13:52:10;6.22;;;3.90;;
31758;SDS011;36334;51.366;0.020;2022-09-09T13:54:57;5.15;;;3.97;;
31758;SDS011;36334;51.366;0.020;2022-09-09T13:57:55;9.95;;;4.43;;
31758;SDS011;36334;51.366;0.020;2022-09-09T14:00:44;10.63;;;4.43;;
31758;SDS011;36334;51.366;0.020;2022-09-09T14:03:32;7.82;;;4.95;;
31758;SDS011;36334;51.366;0.020;2022-09-09T14:06:19;8.70;;;4.25;;
31758;SDS011;36334;51.366;0.020;2022-09-09T14:09:09;6.90;;;4.72;;
31758;SDS011;36334;51.366;0.020;2022-09-09T14:11:58;5.70;;;4.45;;
31758;SDS011;36334;51.366;0.020;2022-09-09T14:14:44;7.07;;;5.25;;
31758;SDS011;36334;51.366;0.020;2022-09-09T14:17:30;6.05;;;4.25;;
31758;SDS011;36334;51.366;0.020;2022-09-09T14:20:17;6.45;;;4.43;;
31758;SDS011;36334;51.366;0.020;2022-09-09T14:23:04;29.42;;;11.38;;
31758;SDS011;36334;51.366;0.020;2022-09-09T14:25:51;6.43;;;4.13;;
31758;SDS011;36334;51.366;0.020;2022-09-09T14:28:37;5.85;;;3.53;;
31758;SDS011;36334;51.366;0.020;2022-09-09T14:31:41;7.60;;;4.03;;
31758;SDS011;36334;51.366;0.020;2022-09-09T14:34:27;4.20;;;3.78;;
31758;SDS011;36334;51.366;0.020;2022-09-09T14:37:13;4.30;;;3.53;;
31758;SDS011;36334;51.366;0.020;2022-09-09T14:39:59;6.60;;;3.85;;
31758;SDS011;36334;51.366;0.020;2022-09-09T14:42:45;6.80;;;4.18;;
31758;SDS011;36334;51.366;0.020;2022-09-09T14:45:31;5.13;;;3.03;;
31758;SDS011;36334;51.366;0.020;2022-09-09T14:48:17;4.55;;;3.50;;
31758;SDS011;36334;51.366;0.020;2022-09-09T14:51:08;5.00;;;3.80;;
31758;SDS011;36334;51.366;0.020;2022-09-09T14:53:58;6.90;;;3.25;;
31758;SDS011;36334;51.366;0.020;2022-09-09T14:56:47;5.07;;;3.25;;
31758;SDS011;36334;51.366;0.020;2022-09-09T14:59:33;6.95;;;3.17;;
31758;SDS011;36334;51.366;0.020;2022-09-09T15:02:19;7.65;;;3.47;;
31758;SDS011;36334;51.366;0.020;2022-09-09T15:05:05;9.40;;;3.78;;
31758;SDS011;36334;51.366;0.020;2022-09-09T15:07:51;5.07;;;2.85;;
31758;SDS011;36334;51.366;0.020;2022-09-09T15:10:40;5.45;;;2.47;;
31758;SDS011;36334;51.366;0.020;2022-09-09T15:13:26;4.05;;;2.47;;
31758;SDS011;36334;51.366;0.020;2022-09-09T15:16:16;6.60;;;2.85;;
31758;SDS011;36334;51.366;0.020;2022-09-09T15:19:03;3.58;;;2.25;;
31758;SDS011;36334;51.366;0.020;2022-09-09T15:21:49;5.10;;;2.35;;
31758;SDS011;36334;51.366;0.020;2022-09-09T15:24:35;3.97;;;2.17;;
31758;SDS011;36334;51.366;0.020;2022-09-09T15:27:22;6.70;;;3.35;;
31758;SDS011;36334;51.366;0.020;2022-09-09T15:30:09;5.07;;;2.92;;
31758;SDS011;36334;51.366;0.020;2022-09-09T15:32:56;5.68;;;2.97;;
31758;SDS011;36334;51.366;0.020;2022-09-09T15:35:42;3.97;;;2.08;;
31758;SDS011;36334;51.366;0.020;2022-09-09T15:38:30;5.45;;;2.38;;
31758;SDS011;36334;51.366;0.020;2022-09-09T15:41:17;3.30;;;1.98;;
31758;SDS011;36334;51.366;0.020;2022-09-09T15:44:05;3.72;;;2.20;;
31758;SDS011;36334;51.366;0.020;2022-09-09T15:46:52;5.28;;;2.17;;
31758;SDS011;36334;51.366;0.020;2022-09-09T15:49:39;4.85;;;2.60;;
31758;SDS011;36334;51.366;0.020;2022-09-09T15:52:25;3.38;;;2.28;;
31758;SDS011;36334;51.366;0.020;2022-09-09T15:55:11;5.10;;;2.13;;
31758;SDS011;36334;51.366;0.020;2022-09-09T15:57:57;5.75;;;2.58;;
31758;SDS011;36334;51.366;0.020;2022-09-09T16:00:43;3.08;;;2.08;;
31758;SDS011;36334;51.366;0.020;2022-09-09T16:03:34;6.18;;;3.05;;
31758;SDS011;36334;51.366;0.020;2022-09-09T16:06:29;7.28;;;2.70;;
31758;SDS011;36334;51.366;0.020;2022-09-09T16:09:16;4.85;;;2.65;;
31758;SDS011;36334;51.366;0.020;2022-09-09T16:12:03;4.68;;;2.70;;
31758;SDS011;36334;51.366;0.020;2022-09-09T16:14:53;4.68;;;2.30;;
31758;SDS011;36334;51.366;0.020;2022-09-09T16:17:40;8.88;;;3.47;;
31758;SDS011;36334;51.366;0.020;2022-09-09T16:20:26;17.52;;;6.18;;
31758;SDS011;36334;51.366;0.020;2022-09-09T16:23:12;11.05;;;4.28;;
31758;SDS011;36334;51.366;0.020;2022-09-09T16:25:58;6.63;;;2.92;;
31758;SDS011;36334;51.366;0.020;2022-09-09T16:28:50;5.45;;;3.17;;
31758;SDS011;36334;51.366;0.020;2022-09-09T16:31:36;5.10;;;3.25;;
31758;SDS011;36334;51.366;0.020;2022-09-09T16:34:23;5.85;;;3.70;;
31758;SDS011;36334;51.366;0.020;2022-09-09T16:37:10;7.25;;;3.90;;
31758;SDS011;36334;51.366;0.020;2022-09-09T16:39:56;7.53;;;4.40;;
31758;SDS011;36334;51.366;0.020;2022-09-09T16:42:42;8.40;;;4.53;;
31758;SDS011;36334;51.366;0.020;2022-09-09T16:45:31;10.25;;;6.15;;
31758;SDS011;36334;51.366;0.020;2022-09-09T16:48:18;11.98;;;5.85;;
31758;SDS011;36334;51.366;0.020;2022-09-09T16:51:06;7.82;;;5.93;;
31758;SDS011;36334;51.366;0.020;2022-09-09T16:53:57;10.65;;;6.18;;
31758;SDS011;36334;51.366;0.020;2022-09-09T16:56:45;11.68;;;7.13;;
31758;SDS011;36334;51.366;0.020;2022-09-09T16:59:33;9.77;;;5.80;;
31758;SDS011;36334;51.366;0.020;2022-09-09T17:02:19;11.68;;;7.18;;
31758;SDS011;36334;51.366;0.020;2022-09-09T17:05:06;10.52;;;7.60;;
31758;SDS011;36334;51.366;0.020;2022-09-09T17:07:53;15.13;;;7.75;;
31758;SDS011;36334;51.366;0.020;2022-09-09T17:10:42;7.93;;;5.68;;
31758;SDS011;36334;51.366;0.020;2022-09-09T17:13:28;8.50;;;6.43;;
31758;SDS011;36334;51.366;0.020;2022-09-09T17:16:16;12.00;;;7.93;;
31758;SDS011;36334;51.366;0.020;2022-09-09T17:19:04;10.88;;;8.10;;
31758;SDS011;36334;51.366;0.020;2022-09-09T17:21:50;12.30;;;7.90;;
31758;SDS011;36334;51.366;0.020;2022-09-09T17:24:56;11.75;;;6.75;;
31758;SDS011;36334;51.366;0.020;2022-09-09T17:27:42;10.73;;;6.70;;
31758;SDS011;36334;51.366;0.020;2022-09-09T17:30:30;11.63;;;7.28;;
31758;SDS011;36334;51.366;0.020;2022-09-09T17:33:19;10.95;;;7.43;;
31758;SDS011;36334;51.366;0.020;2022-09-09T17:36:08;13.35;;;8.18;;
31758;SDS011;36334;51.366;0.020;2022-09-09T17:38:54;14.45;;;8.65;;
31758;SDS011;36334;51.366;0.020;2022-09-09T17:41:41;16.00;;;10.82;;
31758;SDS011;36334;51.366;0.020;2022-09-09T17:44:27;16.48;;;11.85;;
31758;SDS011;36334;51.366;0.020;2022-09-09T17:47:13;17.52;;;11.02;;
31758;SDS011;36334;51.366;0.020;2022-09-09T17:50:00;18.35;;;12.68;;
31758;SDS011;36334;51.366;0.020;2022-09-09T17:52:46;18.95;;;12.48;;
31758;SDS011;36334;51.366;0.020;2022-09-09T17:55:32;21.92;;;13.10;;
31758;SDS011;36334;51.366;0.020;2022-09-09T17:58:18;20.17;;;14.82;;
31758;SDS011;36334;51.366;0.020;2022-09-09T18:01:08;20.13;;;13.55;;
31758;SDS011;36334;51.366;0.020;2022-09-09T18:03:59;15.85;;;12.30;;
31758;SDS011;36334;51.366;0.020;2022-09-09T18:06:48;18.63;;;12.80;;
31758;SDS011;36334;51.366;0.020;2022-09-09T18:09:36;15.05;;;12.13;;
31758;SDS011;36334;51.366;0.020;2022-09-09T18:12:23;15.65;;;11.93;;
31758;SDS011;36334;51.366;0.020;2022-09-09T18:15:09;15.90;;;11.55;;
31758;SDS011;36334;51.366;0.020;2022-09-09T18:17:57;13.07;;;8.07;;
31758;SDS011;36334;51.366;0.020;2022-09-09T18:21:08;17.15;;;9.30;;
31758;SDS011;36334;51.366;0.020;2022-09-09T18:23:53;12.27;;;9.68;;
31758;SDS011;36334;51.366;0.020;2022-09-09T18:26:40;17.08;;;10.88;;
31758;SDS011;36334;51.366;0.020;2022-09-09T18:29:26;14.15;;;9.70;;
31758;SDS011;36334;51.366;0.020;2022-09-09T18:32:12;14.93;;;9.48;;
31758;SDS011;36334;51.366;0.020;2022-09-09T18:34:59;12.15;;;8.00;;
31758;SDS011;36334;51.366;0.020;2022-09-09T18:37:46;11.20;;;7.97;;
31758;SDS011;36334;51.366;0.020;2022-09-09T18:40:32;15.50;;;9.27;;
31758;SDS011;36334;51.366;0.020;2022-09-09T18:43:18;12.30;;;7.45;;
31758;SDS011;36334;51.366;0.020;2022-09-09T18:46:04;10.50;;;7.72;;